createdAt,value
2023-05-08T00:01:25.664Z,10.42
2023-05-08T00:03:55.151Z,10.48
2023-05-08T00:06:23.848Z,10.47
2023-05-08T00:08:52.362Z,10.48
2023-05-08T00:11:21.181Z,10.37
2023-05-08T00:13:49.798Z,10.28
2023-05-08T00:16:18.647Z,10.32
2023-05-08T00:18:48.555Z,10.31
2023-05-08T00:21:17.050Z,10.29
2023-05-08T00:23:45.498Z,10.19
2023-05-08T00:26:14.205Z,10.06
2023-05-08T00:28:42.657Z,10.36
2023-05-08T00:31:12.162Z,9.97
2023-05-08T00:33:40.641Z,10.05
2023-05-08T00:36:11.104Z,10.29
2023-05-08T00:38:39.526Z,10.38
2023-05-08T00:41:08.004Z,10.55
2023-05-08T00:43:37.696Z,10.52
2023-05-08T00:46:06.521Z,10.65
2023-05-08T00:48:36.272Z,10.82
2023-05-08T00:51:09.625Z,10.74
2023-05-08T00:53:40.947Z,10.77
2023-05-08T00:56:13.290Z,10.42
2023-05-08T00:58:42.379Z,10.55
2023-05-08T01:01:12.234Z,10.65
2023-05-08T01:03:41.425Z,10.76
2023-05-08T01:06:11.607Z,10.72
2023-05-08T01:08:40.511Z,10.83
2023-05-08T01:11:16.522Z,10.85
2023-05-08T01:13:53.837Z,10.82
2023-05-08T01:16:41.394Z,10.72
2023-05-08T01:19:35.193Z,10.45
2023-05-08T01:22:18.679Z,10.44
2023-05-08T01:25:44.148Z,10.30
2023-05-08T01:28:45.336Z,10.39
2023-05-08T01:31:20.743Z,10.44
2023-05-08T01:33:57.881Z,10.40
2023-05-08T01:36:34.105Z,10.44
2023-05-08T01:39:19.148Z,10.50
2023-05-08T01:41:59.081Z,10.34
2023-05-08T01:44:36.182Z,10.55
2023-05-08T01:47:08.951Z,10.59
2023-05-08T01:49:42.890Z,10.61
2023-05-08T01:52:18.683Z,10.55
2023-05-08T01:54:57.647Z,10.53
2023-05-08T01:57:30.648Z,10.42
2023-05-08T02:00:04.966Z,10.56
2023-05-08T02:02:36.424Z,10.50
2023-05-08T02:05:10.104Z,10.48
2023-05-08T02:07:39.535Z,10.43
2023-05-08T02:10:10.555Z,10.29
2023-05-08T02:12:40.331Z,10.55
2023-05-08T02:15:10.853Z,10.47
2023-05-08T02:17:41.847Z,10.58
2023-05-08T02:20:15.247Z,10.50
2023-05-08T02:22:46.098Z,10.60
2023-05-08T02:25:16.423Z,10.61
2023-05-08T02:27:48.883Z,10.65
2023-05-08T02:30:19.137Z,10.45
2023-05-08T02:32:49.758Z,10.59
2023-05-08T02:35:21.355Z,10.39
2023-05-08T02:37:53.891Z,10.57
2023-05-08T02:40:27.552Z,10.54
2023-05-08T02:42:56.412Z,10.54
2023-05-08T02:45:33.059Z,10.55
2023-05-08T02:48:10.918Z,10.59
2023-05-08T02:50:47.339Z,10.46
2023-05-08T02:53:25.475Z,10.45
2023-05-08T02:55:59.248Z,10.33
2023-05-08T02:58:38.462Z,10.47
2023-05-08T03:01:12.970Z,10.48
2023-05-08T03:03:45.778Z,10.35
2023-05-08T03:06:23.089Z,10.40
2023-05-08T03:08:53.162Z,10.36
2023-05-08T03:11:26.764Z,10.52
2023-05-08T03:14:00.283Z,10.25
2023-05-08T03:16:33.532Z,10.19
2023-05-08T03:19:09.760Z,10.15
2023-05-08T03:21:42.388Z,10.36
2023-05-08T03:24:11.913Z,10.14
2023-05-08T03:26:40.479Z,10.22
2023-05-08T03:29:09.714Z,10.27
2023-05-08T03:31:39.002Z,10.27
2023-05-08T03:34:09.819Z,10.25
2023-05-08T03:36:40.645Z,10.21
2023-05-08T03:39:10.103Z,10.14
2023-05-08T03:41:38.610Z,10.14
2023-05-08T03:44:07.486Z,10.31
2023-05-08T03:46:37.123Z,10.11
2023-05-08T03:49:07.508Z,10.01
2023-05-08T03:51:39.485Z,10.00
2023-05-08T03:54:08.196Z,9.98
2023-05-08T03:56:36.768Z,9.95
2023-05-08T03:59:15.053Z,10.11
2023-05-08T04:01:53.379Z,10.01
2023-05-08T04:04:31.592Z,10.11
2023-05-08T04:07:10.303Z,9.97
2023-05-08T04:09:50.823Z,9.88
2023-05-08T04:12:24.230Z,9.99
2023-05-08T04:14:57.302Z,10.07
2023-05-08T04:17:44.234Z,10.00
2023-05-08T04:20:18.576Z,10.13
2023-05-08T04:22:51.380Z,10.34
2023-05-08T04:25:21.382Z,10.42
2023-05-08T04:27:52.206Z,10.45
2023-05-08T04:30:21.098Z,10.34
2023-05-08T04:32:50.475Z,10.35
2023-05-08T04:35:19.624Z,10.25
2023-05-08T04:37:49.756Z,10.11
2023-05-08T04:40:18.242Z,10.17
2023-05-08T04:42:47.905Z,10.33
2023-05-08T04:45:16.910Z,10.47
2023-05-08T04:47:45.536Z,10.53
2023-05-08T04:50:14.181Z,10.38
2023-05-08T04:52:42.852Z,10.40
2023-05-08T04:55:12.924Z,10.41
2023-05-08T04:57:41.552Z,10.40
2023-05-08T05:00:11.725Z,10.45
2023-05-08T05:02:40.197Z,10.56
2023-05-08T05:05:09.748Z,10.50
2023-05-08T05:07:38.323Z,10.46
2023-05-08T05:10:08.049Z,10.40
2023-05-08T05:12:39.356Z,10.34
2023-05-08T05:15:09.640Z,10.56
2023-05-08T05:17:38.160Z,10.63
2023-05-08T05:20:10.040Z,10.70
2023-05-08T05:22:38.595Z,10.65
2023-05-08T05:25:08.121Z,10.73
2023-05-08T05:27:38.317Z,10.73
2023-05-08T05:30:08.798Z,10.94
2023-05-08T05:32:37.331Z,10.99
2023-05-08T05:35:06.640Z,10.95
2023-05-08T05:37:35.114Z,11.14
2023-05-08T05:40:03.763Z,11.03
2023-05-08T05:42:32.490Z,11.12
2023-05-08T05:45:02.299Z,11.16
2023-05-08T05:47:30.811Z,11.22
2023-05-08T05:49:59.512Z,11.32
2023-05-08T05:52:28.278Z,11.28
2023-05-08T05:54:56.853Z,11.43
2023-05-08T05:57:25.272Z,11.51
2023-05-08T05:59:54.817Z,11.61
2023-05-08T06:02:26.328Z,11.44
2023-05-08T06:04:54.857Z,11.38
2023-05-08T06:07:23.555Z,11.73
2023-05-08T06:09:53.202Z,11.76
2023-05-08T06:12:22.620Z,11.88
2023-05-08T06:14:52.947Z,11.94
2023-05-08T06:17:22.293Z,11.92
2023-05-08T06:19:54.677Z,11.95
2023-05-08T06:22:24.970Z,12.05
2023-05-08T06:24:55.108Z,12.10
2023-05-08T06:27:23.990Z,12.29
2023-05-08T06:29:53.319Z,12.37
2023-05-08T06:32:22.410Z,12.58
2023-05-08T06:34:53.408Z,12.60
2023-05-08T06:37:21.871Z,12.56
2023-05-08T06:39:57.288Z,12.56
2023-05-08T06:42:32.660Z,12.44
2023-05-08T06:45:01.098Z,12.50
2023-05-08T06:47:29.569Z,12.70
2023-05-08T06:49:59.484Z,12.84
2023-05-08T06:52:27.975Z,12.86
2023-05-08T06:54:56.425Z,12.68
2023-05-08T06:57:27.136Z,12.90
2023-05-08T06:59:55.730Z,12.77
2023-05-08T07:02:24.289Z,12.74
2023-05-08T07:04:53.290Z,12.80
2023-05-08T07:07:23.266Z,13.19
2023-05-08T07:09:51.731Z,13.12
2023-05-08T07:12:20.183Z,13.44
2023-05-08T07:14:49.175Z,13.55
2023-05-08T07:17:17.636Z,13.52
2023-05-08T07:19:46.076Z,13.38
2023-05-08T07:22:16.457Z,13.29
2023-05-08T07:24:46.578Z,13.36
2023-05-08T07:27:15.476Z,13.36
2023-05-08T07:29:43.926Z,13.38
2023-05-08T07:32:12.505Z,13.50
2023-05-08T07:34:40.939Z,13.49
2023-05-08T07:37:09.444Z,13.59
2023-05-08T07:39:37.921Z,13.75
2023-05-08T07:42:08.038Z,13.89
2023-05-08T07:44:43.734Z,13.83
2023-05-08T07:47:15.655Z,13.93
2023-05-08T07:49:44.129Z,14.16
2023-05-08T07:52:12.582Z,14.32
2023-05-08T07:54:40.995Z,14.23
2023-05-08T07:57:11.241Z,14.36
2023-05-08T07:59:40.229Z,14.42
2023-05-08T08:02:08.802Z,14.52
2023-05-08T08:04:37.326Z,14.58
2023-05-08T08:07:05.773Z,14.56
2023-05-08T08:09:34.223Z,14.47
2023-05-08T08:12:04.421Z,14.70
2023-05-08T08:14:34.304Z,15.94
2023-05-08T08:17:04.065Z,16.51
2023-05-08T08:19:33.016Z,16.52
2023-05-08T08:22:01.672Z,16.38
2023-05-08T08:24:30.988Z,16.02
2023-05-08T08:26:59.599Z,15.88
2023-05-08T08:29:28.033Z,16.13
2023-05-08T08:31:57.866Z,15.58
2023-05-08T08:34:27.321Z,15.67
2023-05-08T08:36:55.869Z,15.74
2023-05-08T08:39:24.342Z,15.82
2023-05-08T08:41:53.411Z,15.63
2023-05-08T08:44:22.578Z,15.71
2023-05-08T08:46:53.347Z,15.31
2023-05-08T08:49:32.154Z,15.10
2023-05-08T08:52:04.619Z,14.96
2023-05-08T08:54:38.182Z,14.62
2023-05-08T08:57:08.892Z,14.57
2023-05-08T08:59:40.526Z,14.55
2023-05-08T09:02:17.693Z,14.55
2023-05-08T09:04:50.836Z,14.58
2023-05-08T09:07:20.503Z,14.26
2023-05-08T09:09:49.580Z,14.35
2023-05-08T09:12:18.035Z,14.29
2023-05-08T09:14:46.543Z,14.36
2023-05-08T09:17:15.066Z,14.16
2023-05-08T09:19:44.313Z,13.93
2023-05-08T09:22:15.015Z,14.09
2023-05-08T09:25:04.554Z,14.24
2023-05-08T09:27:34.703Z,14.47
2023-05-08T09:30:06.689Z,14.73
2023-05-08T09:32:36.906Z,14.55
2023-05-08T09:35:07.272Z,14.83
2023-05-08T09:37:40.426Z,14.64
2023-05-08T09:40:21.975Z,14.76
2023-05-08T09:42:51.818Z,14.57
2023-05-08T09:45:32.240Z,14.67
2023-05-08T09:48:01.126Z,14.98
2023-05-08T09:50:30.144Z,14.75
2023-05-08T09:53:00.043Z,14.90
2023-05-08T09:55:28.561Z,15.04
2023-05-08T09:58:00.127Z,14.77
2023-05-08T10:00:30.436Z,14.91
2023-05-08T10:03:01.920Z,15.15
2023-05-08T10:05:32.739Z,15.34
2023-05-08T10:08:22.260Z,15.35
2023-05-08T10:10:51.867Z,14.70
2023-05-08T10:13:20.487Z,14.66
2023-05-08T10:15:55.799Z,14.74
2023-05-08T10:18:30.974Z,14.85
2023-05-08T10:21:02.490Z,14.80
2023-05-08T10:23:34.466Z,14.93
2023-05-08T10:26:13.163Z,14.74
2023-05-08T10:28:46.196Z,14.61
2023-05-08T10:31:19.068Z,14.70
2023-05-08T10:33:52.669Z,14.67
2023-05-08T10:36:22.061Z,14.81
2023-05-08T10:38:53.638Z,14.18
2023-05-08T10:41:23.320Z,14.57
2023-05-08T10:43:52.445Z,14.20
2023-05-08T10:46:32.286Z,13.84
2023-05-08T10:49:15.174Z,13.61
2023-05-08T10:51:55.544Z,13.20
2023-05-08T10:54:35.806Z,13.56
2023-05-08T10:57:11.871Z,13.48
2023-05-08T10:59:40.504Z,13.48
2023-05-08T11:02:09.966Z,13.09
2023-05-08T11:04:38.940Z,13.29
2023-05-08T11:07:07.583Z,13.43
2023-05-08T11:09:49.399Z,13.35
2023-05-08T11:12:25.322Z,13.37
2023-05-08T11:15:03.064Z,13.46
2023-05-08T11:17:31.670Z,13.38
2023-05-08T11:20:02.332Z,13.23
2023-05-08T11:22:32.882Z,13.53
2023-05-08T11:25:08.908Z,13.51
2023-05-08T11:28:11.484Z,13.64
2023-05-08T11:30:41.706Z,13.61
2023-05-08T11:33:18.389Z,13.70
2023-05-08T11:35:57.873Z,13.80
2023-05-08T11:38:38.440Z,13.98
2023-05-08T11:41:10.469Z,14.04
2023-05-08T11:44:09.570Z,14.20
2023-05-08T11:46:43.054Z,13.97
2023-05-08T11:49:21.473Z,14.35
2023-05-08T11:51:55.699Z,14.39
2023-05-08T11:54:25.147Z,14.41
2023-05-08T11:56:55.657Z,14.08
2023-05-08T11:59:24.158Z,14.45
2023-05-08T12:02:06.846Z,14.67
2023-05-08T12:04:45.675Z,15.05
2023-05-08T12:07:15.937Z,15.21
2023-05-08T12:09:44.459Z,15.26
2023-05-08T12:12:14.308Z,15.33
2023-05-08T12:14:42.751Z,14.90
2023-05-08T12:17:11.871Z,15.26
2023-05-08T12:19:40.664Z,15.13
2023-05-08T12:22:10.754Z,15.12
2023-05-08T12:24:40.923Z,14.69
2023-05-08T12:27:10.220Z,14.78
2023-05-08T12:29:40.294Z,14.43
2023-05-08T12:32:08.828Z,14.52
2023-05-08T12:34:37.878Z,14.43
2023-05-08T12:37:06.881Z,14.48
2023-05-08T12:39:38.662Z,14.46
2023-05-08T12:42:07.244Z,14.24
2023-05-08T12:44:35.737Z,14.40
2023-05-08T12:47:07.079Z,14.34
2023-05-08T12:49:35.550Z,14.58
2023-05-08T12:52:07.079Z,14.32
2023-05-08T12:54:37.390Z,14.27
2023-05-08T12:57:13.054Z,14.40
2023-05-08T12:59:42.485Z,14.09
2023-05-08T13:02:17.601Z,14.25
2023-05-08T13:04:46.897Z,13.99
2023-05-08T13:07:15.826Z,14.34
2023-05-08T13:09:58.345Z,14.65
2023-05-08T13:12:26.905Z,14.82
2023-05-08T13:14:55.386Z,14.96
2023-05-08T13:17:25.393Z,15.04
2023-05-08T13:19:54.108Z,14.97
2023-05-08T13:22:26.517Z,14.70
2023-05-08T13:24:55.362Z,14.74
2023-05-08T13:27:24.090Z,14.43
2023-05-08T13:29:52.563Z,14.08
2023-05-08T13:32:21.198Z,13.96
2023-05-08T13:34:52.332Z,13.96
2023-05-08T13:37:23.714Z,14.02
2023-05-08T13:39:52.166Z,14.13
2023-05-08T13:42:20.896Z,14.13
2023-05-08T13:44:49.364Z,14.36
2023-05-08T13:47:17.856Z,14.26
2023-05-08T13:49:47.320Z,14.13
2023-05-08T13:52:17.258Z,14.26
2023-05-08T13:54:45.784Z,13.84
2023-05-08T13:57:14.322Z,13.57
2023-05-08T13:59:43.304Z,13.64
2023-05-08T14:02:11.845Z,13.64
2023-05-08T14:04:40.590Z,13.93
2023-05-08T14:07:09.109Z,14.13
2023-05-08T14:09:39.203Z,13.90
2023-05-08T14:12:07.854Z,14.06
2023-05-08T14:14:36.305Z,14.18
2023-05-08T14:17:06.594Z,14.23
2023-05-08T14:19:35.714Z,14.07
2023-05-08T14:22:04.830Z,13.96
2023-05-08T14:24:33.272Z,13.58
2023-05-08T14:27:05.948Z,13.59
2023-05-08T14:29:34.676Z,13.79
2023-05-08T14:32:03.578Z,13.97
2023-05-08T14:34:32.408Z,14.17
2023-05-08T14:37:00.957Z,14.21
2023-05-08T14:39:29.695Z,14.35
2023-05-08T14:42:20.735Z,14.36
2023-05-08T14:44:48.866Z,14.43
2023-05-08T14:47:17.575Z,14.58
2023-05-08T14:49:46.284Z,14.61
2023-05-08T14:52:14.759Z,14.70
2023-05-08T14:54:43.481Z,14.30
2023-05-08T14:57:12.152Z,14.46
2023-05-08T15:02:30.811Z,14.55
2023-05-08T15:04:59.388Z,14.22
2023-05-08T15:07:27.861Z,14.37
2023-05-08T15:09:56.598Z,14.32
2023-05-08T15:12:25.135Z,14.31
2023-05-08T15:14:53.883Z,14.59
2023-05-08T15:17:22.445Z,14.68
2023-05-08T15:19:52.672Z,14.28
2023-05-08T15:22:21.156Z,14.38
2023-05-08T15:24:49.633Z,14.34
2023-05-08T15:27:18.081Z,14.15
2023-05-08T15:29:46.574Z,14.22
2023-05-08T15:32:15.146Z,14.17
2023-05-08T15:34:43.698Z,14.05
2023-05-08T15:37:13.897Z,14.08
2023-05-08T15:39:43.261Z,14.25
2023-05-08T15:42:11.875Z,14.27
2023-05-08T15:47:11.687Z,14.33
2023-05-08T15:49:40.161Z,14.42
2023-05-08T15:52:08.654Z,14.01
2023-05-08T15:54:38.819Z,14.22
2023-05-08T15:57:07.369Z,14.47
2023-05-08T15:59:37.893Z,14.45
2023-05-08T16:02:06.643Z,14.26
2023-05-08T16:04:35.200Z,13.98
2023-05-08T16:07:04.452Z,14.21
2023-05-08T16:09:33.577Z,13.95
2023-05-08T16:12:03.703Z,14.00
2023-05-08T16:14:32.184Z,13.74
2023-05-08T16:17:00.646Z,13.81
2023-05-08T16:19:29.133Z,13.66
2023-05-08T16:21:57.840Z,13.70
2023-05-08T16:24:26.404Z,13.69
2023-05-08T16:26:54.908Z,13.88
2023-05-08T16:29:24.789Z,13.53
2023-05-08T16:31:53.442Z,13.30
2023-05-08T16:34:22.320Z,13.40
2023-05-08T16:36:50.865Z,13.55
2023-05-08T16:39:19.333Z,13.88
2023-05-08T16:41:47.798Z,13.93
2023-05-08T16:44:16.532Z,14.05
2023-05-08T16:46:46.505Z,13.47
2023-05-08T16:49:15.493Z,13.32
2023-05-08T16:51:43.946Z,13.37
2023-05-08T16:54:13.084Z,13.40
2023-05-08T16:56:41.577Z,13.40
2023-05-08T16:59:10.110Z,13.26
2023-05-08T17:01:38.893Z,13.71
2023-05-08T17:04:09.129Z,13.79
2023-05-08T17:06:37.647Z,13.98
2023-05-08T17:09:06.168Z,13.96
2023-05-08T17:11:34.743Z,14.03
2023-05-08T17:14:03.455Z,14.03
2023-05-08T17:16:31.986Z,13.92
2023-05-08T17:19:01.808Z,13.99
2023-05-08T17:21:32.210Z,14.05
2023-05-08T17:24:01.597Z,13.91
2023-05-08T17:26:33.177Z,13.92
2023-05-08T17:29:02.010Z,13.99
2023-05-08T17:31:30.522Z,13.94
2023-05-08T17:33:59.069Z,13.99
2023-05-08T17:36:27.534Z,13.84
2023-05-08T17:38:57.626Z,13.56
2023-05-08T17:41:26.174Z,13.53
2023-05-08T17:43:55.536Z,13.24
2023-05-08T17:46:24.079Z,13.01
2023-05-08T17:48:52.585Z,12.91
2023-05-08T17:51:21.182Z,12.73
2023-05-08T17:53:49.695Z,12.72
2023-05-08T17:56:20.763Z,13.10
2023-05-08T17:58:49.186Z,13.11
2023-05-08T18:01:17.895Z,12.99
2023-05-08T18:03:48.128Z,12.88
2023-05-08T18:06:17.202Z,12.71
2023-05-08T18:08:46.104Z,12.74
2023-05-08T18:11:20.919Z,12.66
2023-05-08T18:13:49.978Z,12.77
2023-05-08T18:16:21.174Z,12.79
2023-05-08T18:18:50.309Z,12.66
2023-05-08T18:21:18.941Z,12.47
2023-05-08T18:23:47.494Z,12.36
2023-05-08T18:26:16.278Z,12.47
2023-05-08T18:28:46.260Z,12.60
2023-05-08T18:31:16.378Z,12.38
2023-05-08T18:33:44.925Z,12.43
2023-05-08T18:36:13.684Z,12.26
2023-05-08T18:38:42.754Z,12.35
2023-05-08T18:41:11.397Z,12.28
2023-05-08T18:43:39.914Z,12.30
2023-05-08T18:46:14.461Z,12.18
2023-05-08T18:48:43.025Z,12.17
2023-05-08T18:51:11.899Z,12.35
2023-05-08T18:53:41.010Z,12.44
2023-05-08T18:56:10.366Z,12.53
2023-05-08T18:58:38.827Z,12.55
2023-05-08T19:01:07.630Z,12.23
2023-05-08T19:03:37.583Z,12.15
2023-05-08T19:06:07.489Z,12.21
2023-05-08T19:08:35.953Z,12.24
2023-05-08T19:11:04.675Z,12.01
2023-05-08T19:13:33.325Z,12.00
2023-05-08T19:16:01.906Z,12.21
2023-05-08T19:18:30.757Z,12.19
2023-05-08T19:21:00.639Z,12.22
2023-05-08T19:23:29.242Z,12.05
2023-05-08T19:25:57.824Z,12.08
2023-05-08T19:28:26.652Z,12.23
2023-05-08T19:30:55.123Z,12.28
2023-05-08T19:33:23.794Z,12.45
2023-05-08T19:35:52.314Z,12.35
2023-05-08T19:38:22.245Z,12.44
2023-05-08T19:40:57.310Z,12.27
2023-05-08T19:43:26.950Z,12.13
2023-05-08T19:45:56.455Z,12.39
2023-05-08T19:48:25.140Z,12.34
2023-05-08T19:50:55.071Z,12.19
2023-05-08T19:53:25.554Z,12.29
2023-05-08T19:55:54.250Z,12.32
2023-05-08T19:58:22.728Z,12.16
2023-05-08T20:00:51.855Z,12.01
2023-05-08T20:03:21.050Z,11.91
2023-05-08T20:05:49.652Z,11.81
2023-05-08T20:08:18.311Z,11.82
2023-05-08T20:10:49.153Z,11.88
2023-05-08T20:13:18.216Z,12.07
2023-05-08T20:15:46.915Z,12.25
2023-05-08T20:18:15.734Z,12.05
2023-05-08T20:20:46.118Z,12.18
2023-05-08T20:23:14.818Z,12.21
2023-05-08T20:25:46.179Z,12.07
2023-05-08T20:28:19.000Z,11.97
2023-05-08T20:30:47.730Z,12.02
2023-05-08T20:33:16.299Z,12.09
2023-05-08T20:35:44.779Z,12.02
2023-05-08T20:38:14.770Z,12.13
2023-05-08T20:40:43.621Z,12.18
2023-05-08T20:43:12.440Z,12.11
2023-05-08T20:45:42.627Z,12.05
2023-05-08T20:48:11.141Z,12.18
2023-05-08T20:50:39.612Z,12.28
2023-05-08T20:53:08.100Z,12.32
2023-05-08T20:55:36.619Z,12.24
2023-05-08T20:58:06.546Z,12.26
2023-05-08T21:00:34.999Z,12.31
2023-05-08T21:03:05.335Z,12.17
2023-05-08T21:05:33.845Z,12.25
2023-05-08T21:08:03.571Z,12.21
2023-05-08T21:10:32.203Z,12.26
2023-05-08T21:13:00.694Z,12.25
2023-05-08T21:15:29.219Z,12.21
2023-05-08T21:17:58.122Z,12.23
2023-05-08T21:20:28.383Z,12.11
2023-05-08T21:22:56.858Z,12.02
2023-05-08T21:25:25.758Z,12.07
2023-05-08T21:27:55.373Z,11.88
2023-05-08T21:30:24.166Z,11.83
2023-05-08T21:32:52.888Z,11.82
2023-05-08T21:35:22.214Z,12.00
2023-05-08T21:37:54.792Z,12.17
2023-05-08T21:40:23.947Z,12.03
2023-05-08T21:42:52.402Z,11.94
2023-05-08T21:45:21.061Z,11.99
2023-05-08T21:47:49.672Z,11.92
2023-05-08T21:50:18.518Z,11.86
2023-05-08T21:52:47.247Z,11.72
2023-05-08T21:55:17.108Z,11.70
2023-05-08T21:57:45.815Z,11.76
2023-05-08T22:00:16.583Z,11.69
2023-05-08T22:02:45.159Z,11.87
2023-05-08T22:05:13.795Z,11.64
2023-05-08T22:07:43.018Z,11.67
2023-05-08T22:10:13.887Z,11.90
2023-05-08T22:12:44.019Z,11.43
2023-05-08T22:15:25.689Z,11.34
2023-05-08T22:17:57.476Z,11.31
2023-05-08T22:20:26.200Z,11.40
2023-05-08T22:22:54.734Z,11.43
2023-05-08T22:25:23.283Z,11.47
2023-05-08T22:27:53.188Z,11.49
2023-05-08T22:30:21.935Z,11.61
2023-05-08T22:32:56.265Z,11.65
2023-05-08T22:35:26.914Z,11.52
2023-05-08T22:37:57.334Z,11.41
2023-05-08T22:40:26.947Z,11.30
2023-05-08T22:42:58.927Z,11.42
2023-05-08T22:45:28.281Z,11.50
2023-05-08T22:47:57.260Z,11.50
2023-05-08T22:50:25.793Z,11.59
2023-05-08T22:52:54.279Z,11.45
2023-05-08T22:55:22.908Z,11.55
2023-05-08T22:57:51.428Z,11.62
2023-05-08T23:00:22.319Z,11.62
2023-05-08T23:02:51.448Z,11.62
2023-05-08T23:05:20.146Z,11.70
2023-05-08T23:07:48.605Z,11.65
2023-05-08T23:10:17.265Z,11.59
2023-05-08T23:12:45.783Z,11.61
2023-05-08T23:15:14.822Z,11.50
2023-05-08T23:17:45.106Z,11.32
2023-05-08T23:20:14.751Z,11.30
2023-05-08T23:22:43.255Z,11.34
2023-05-08T23:25:12.926Z,11.58
2023-05-08T23:27:41.928Z,11.38
2023-05-08T23:30:13.181Z,11.40
2023-05-08T23:32:41.855Z,11.51
2023-05-08T23:35:12.563Z,11.35
2023-05-08T23:37:41.264Z,11.45
2023-05-08T23:40:11.363Z,11.45
2023-05-08T23:42:40.357Z,11.50
2023-05-08T23:45:11.131Z,11.38
2023-05-08T23:47:39.773Z,11.47
2023-05-08T23:50:09.196Z,11.51
2023-05-08T23:52:39.047Z,11.43
2023-05-08T23:55:09.405Z,11.27
2023-05-08T23:57:37.941Z,11.06
